createdAt,value
2019-01-26T00:00:32.666Z,-1.89
2019-01-26T00:05:34.824Z,-1.91
2019-01-26T00:10:37.403Z,-1.89
2019-01-26T00:15:40.043Z,-1.87
2019-01-26T00:20:42.493Z,-1.87
2019-01-26T00:25:44.622Z,-1.88
2019-01-26T00:30:46.947Z,-1.89
2019-01-26T00:35:49.662Z,-1.83
2019-01-26T00:40:52.555Z,-1.76
2019-01-26T00:45:55.677Z,-1.67
2019-01-26T00:50:59.295Z,-1.63
2019-01-26T00:56:01.760Z,-1.59
2019-01-26T01:01:04.388Z,-1.54
2019-01-26T01:06:06.974Z,-1.53
2019-01-26T01:11:10.764Z,-1.51
2019-01-26T01:16:12.957Z,-1.49
2019-01-26T01:21:15.491Z,-1.52
2019-01-26T01:26:17.820Z,-1.52
2019-01-26T01:31:20.085Z,-1.47
2019-01-26T01:36:22.384Z,-1.45
2019-01-26T01:41:24.545Z,-1.45
2019-01-26T01:46:27.302Z,-1.47
2019-01-26T01:51:29.497Z,-1.44
2019-01-26T01:56:31.766Z,-1.47
2019-01-26T02:01:34.464Z,-1.47
2019-01-26T02:06:36.870Z,-1.45
2019-01-26T02:11:39.462Z,-1.43
2019-01-26T02:16:42.024Z,-1.47
2019-01-26T02:21:45.924Z,-1.41
2019-01-26T02:26:48.795Z,-1.42
2019-01-26T02:31:51.578Z,-1.40
2019-01-26T02:36:53.790Z,-1.38
2019-01-26T02:41:56.283Z,-1.37
2019-01-26T02:46:58.833Z,-1.35
2019-01-26T02:52:01.347Z,-1.31
2019-01-26T02:57:03.782Z,-1.29
2019-01-26T03:02:06.068Z,-1.27
2019-01-26T03:07:09.562Z,-1.26
2019-01-26T03:12:11.748Z,-1.25
2019-01-26T03:17:15.234Z,-1.28
2019-01-26T03:22:17.826Z,-1.26
2019-01-26T03:27:20.667Z,-1.28
2019-01-26T03:32:23.458Z,-1.27
2019-01-26T03:37:26.335Z,-1.28
2019-01-26T03:42:28.992Z,-1.28
2019-01-26T03:47:31.550Z,-1.27
2019-01-26T03:52:34.405Z,-1.22
2019-01-26T03:57:37.761Z,-1.22
2019-01-26T04:02:40.274Z,-1.15
2019-01-26T04:07:43.278Z,-1.13
2019-01-26T04:12:45.978Z,-1.07
2019-01-26T04:17:49.092Z,-1.00
2019-01-26T04:22:51.716Z,-0.95
2019-01-26T04:27:54.549Z,-0.92
2019-01-26T04:32:57.562Z,-0.87
2019-01-26T04:38:00.101Z,-0.83
2019-01-26T04:43:02.879Z,-0.79
2019-01-26T04:48:05.365Z,-0.76
2019-01-26T04:53:07.684Z,-0.71
2019-01-26T04:58:09.984Z,-0.68
2019-01-26T05:03:12.445Z,-0.66
2019-01-26T05:08:14.948Z,-0.63
2019-01-26T05:13:17.483Z,-0.61
2019-01-26T05:18:20.010Z,-0.58
2019-01-26T05:23:22.612Z,-0.55
2019-01-26T05:28:25.294Z,-0.49
2019-01-26T05:33:27.586Z,-0.49
2019-01-26T05:38:30.171Z,-0.48
2019-01-26T05:43:32.398Z,-0.48
2019-01-26T05:48:34.740Z,-0.46
2019-01-26T05:53:36.960Z,-0.45
2019-01-26T05:58:39.701Z,-0.42
2019-01-26T06:03:42.734Z,-0.39
2019-01-26T06:08:44.969Z,-0.36
2019-01-26T06:13:47.456Z,-0.35
2019-01-26T06:18:49.662Z,-0.34
2019-01-26T06:23:52.136Z,-0.31
2019-01-26T06:28:55.470Z,-0.28
2019-01-26T06:33:57.760Z,-0.25
2019-01-26T06:39:00.713Z,-0.21
2019-01-26T06:44:03.047Z,-0.15
2019-01-26T06:49:05.273Z,-0.11
2019-01-26T06:54:07.636Z,-0.07
2019-01-26T06:59:09.974Z,-0.01
2019-01-26T07:04:16.134Z,0.07
2019-01-26T07:09:18.331Z,0.15
2019-01-26T07:14:21.404Z,0.24
2019-01-26T07:19:24.307Z,0.30
2019-01-26T07:24:26.702Z,0.38
2019-01-26T07:29:28.901Z,0.45
2019-01-26T07:34:31.260Z,0.53
2019-01-26T07:39:33.584Z,0.59
2019-01-26T07:44:36.180Z,0.63
2019-01-26T07:49:38.664Z,0.66
2019-01-26T07:54:41.573Z,0.70
2019-01-26T07:59:44.070Z,0.75
2019-01-26T08:04:47.098Z,0.78
2019-01-26T08:09:49.352Z,0.84
2019-01-26T08:14:52.321Z,0.90
2019-01-26T08:19:56.579Z,0.95
2019-01-26T08:24:59.253Z,1.01
2019-01-26T08:30:01.970Z,1.05
2019-01-26T08:35:05.944Z,1.10
2019-01-26T08:40:10.955Z,1.17
2019-01-26T08:45:14.228Z,1.23
2019-01-26T08:50:20.503Z,1.27
2019-01-26T08:55:23.655Z,1.31
2019-01-26T09:00:27.574Z,1.36
2019-01-26T09:05:32.785Z,1.43
2019-01-26T09:10:35.363Z,1.47
2019-01-26T09:15:37.945Z,1.53
2019-01-26T09:20:40.788Z,1.57
2019-01-26T09:25:46.433Z,1.64
2019-01-26T09:30:48.924Z,1.70
2019-01-26T09:35:51.967Z,1.75
2019-01-26T09:40:56.889Z,1.80
2019-01-26T09:46:01.368Z,1.83
2019-01-26T09:51:04.276Z,1.88
2019-01-26T09:56:09.044Z,1.91
2019-01-26T10:01:11.632Z,1.96
2019-01-26T10:06:14.076Z,1.99
2019-01-26T10:11:16.483Z,2.02
2019-01-26T10:16:20.093Z,2.08
2019-01-26T10:21:22.906Z,2.13
2019-01-26T10:26:25.435Z,2.17
2019-01-26T10:31:27.747Z,2.22
2019-01-26T10:36:40.111Z,2.23
2019-01-26T10:42:02.232Z,2.28
2019-01-26T10:47:05.901Z,2.31
2019-01-26T10:52:09.471Z,2.37
2019-01-26T10:57:12.619Z,2.45
2019-01-26T11:02:15.882Z,2.51
2019-01-26T11:07:18.773Z,2.55
2019-01-26T11:12:21.295Z,2.59
2019-01-26T11:17:24.552Z,2.66
2019-01-26T11:22:27.008Z,2.70
2019-01-26T11:27:30.007Z,2.78
2019-01-26T11:32:32.811Z,2.83
2019-01-26T11:37:35.192Z,2.89
2019-01-26T11:42:37.684Z,2.93
2019-01-26T11:47:40.142Z,2.95
2019-01-26T11:52:42.647Z,2.97
2019-01-26T11:57:44.880Z,2.98
2019-01-26T12:02:53.669Z,3.03
2019-01-26T12:07:56.007Z,3.11
2019-01-26T12:12:58.348Z,3.14
2019-01-26T12:18:02.064Z,3.20
2019-01-26T12:23:04.389Z,3.24
2019-01-26T12:28:07.060Z,3.25
2019-01-26T12:33:09.851Z,3.25
2019-01-26T12:38:12.645Z,3.20
2019-01-26T12:43:15.304Z,3.20
2019-01-26T12:48:18.314Z,3.23
2019-01-26T12:53:22.184Z,3.25
2019-01-26T12:58:25.445Z,3.29
2019-01-26T13:03:27.658Z,3.26
2019-01-26T13:08:30.190Z,3.29
2019-01-26T13:13:33.570Z,3.30
2019-01-26T13:18:36.198Z,3.38
2019-01-26T13:23:38.943Z,3.37
2019-01-26T13:28:41.762Z,3.27
2019-01-26T13:33:44.502Z,3.38
2019-01-26T13:38:46.945Z,3.34
2019-01-26T13:43:49.851Z,3.32
2019-01-26T13:48:52.312Z,3.32
2019-01-26T13:53:55.013Z,3.28
2019-01-26T13:58:57.334Z,3.24
2019-01-26T14:03:59.846Z,3.22
2019-01-26T14:09:04.523Z,3.20
2019-01-26T14:14:09.246Z,3.25
2019-01-26T14:19:12.342Z,3.26
2019-01-26T14:24:16.158Z,3.29
2019-01-26T14:29:18.352Z,3.34
2019-01-26T14:34:20.603Z,3.32
2019-01-26T14:39:23.088Z,3.33
2019-01-26T14:44:25.892Z,3.27
2019-01-26T14:49:28.343Z,3.25
2019-01-26T14:54:31.089Z,3.24
2019-01-26T14:59:36.445Z,3.22
2019-01-26T15:04:39.044Z,3.20
2019-01-26T15:09:41.443Z,3.22
2019-01-26T15:14:43.705Z,3.22
2019-01-26T15:20:05.815Z,3.17
2019-01-26T15:25:07.118Z,3.15
2019-01-26T15:30:45.557Z,3.15
2019-01-26T15:35:48.618Z,3.19
2019-01-26T15:40:51.527Z,3.17
2019-01-26T15:45:54.851Z,3.13
2019-01-26T15:50:57.471Z,3.11
2019-01-26T15:56:20.155Z,3.09
2019-01-26T16:01:22.629Z,3.07
2019-01-26T16:06:25.366Z,3.09
2019-01-26T16:11:27.721Z,3.09
2019-01-26T16:16:30.068Z,3.06
2019-01-26T16:21:32.330Z,3.09
2019-01-26T16:26:34.921Z,3.11
2019-01-26T16:31:37.781Z,3.12
2019-01-26T16:36:40.127Z,3.13
2019-01-26T16:41:44.301Z,3.11
2019-01-26T16:46:47.229Z,3.11
2019-01-26T16:51:50.200Z,3.10
2019-01-26T16:56:53.923Z,3.13
2019-01-26T17:01:56.376Z,3.13
2019-01-26T17:07:02.890Z,3.13
2019-01-26T17:12:05.965Z,3.17
2019-01-26T17:17:08.870Z,3.14
2019-01-26T17:22:11.152Z,3.15
2019-01-26T17:27:13.715Z,3.13
2019-01-26T17:32:16.175Z,3.11
2019-01-26T17:37:18.629Z,3.11
2019-01-26T17:42:21.382Z,3.09
2019-01-26T17:47:23.642Z,3.03
2019-01-26T17:52:26.201Z,3.01
2019-01-26T17:57:31.313Z,3.00
2019-01-26T18:02:34.398Z,2.97
2019-01-26T18:07:37.413Z,2.97
2019-01-26T18:12:39.710Z,2.97
2019-01-26T18:17:45.653Z,2.97
2019-01-26T18:23:14.683Z,2.99
2019-01-26T18:28:17.594Z,3.06
2019-01-26T18:33:20.065Z,3.10
2019-01-26T18:38:22.277Z,3.11
2019-01-26T18:43:24.926Z,3.17
2019-01-26T18:48:27.524Z,3.16
2019-01-26T18:53:30.527Z,3.16
2019-01-26T18:58:33.178Z,3.15
2019-01-26T19:04:18.167Z,3.13
2019-01-26T19:09:21.552Z,3.12
2019-01-26T19:14:23.807Z,3.12
2019-01-26T19:19:26.119Z,3.13
2019-01-26T19:24:29.226Z,3.11
2019-01-26T19:29:32.218Z,3.13
2019-01-26T19:34:34.883Z,3.13
2019-01-26T19:39:37.211Z,3.11
2019-01-26T19:44:39.433Z,3.11
2019-01-26T19:49:41.802Z,3.11
2019-01-26T19:54:44.502Z,3.13
2019-01-26T19:59:47.504Z,3.13
2019-01-26T20:04:51.016Z,3.12
2019-01-26T20:09:53.289Z,3.11
2019-01-26T20:14:56.188Z,3.13
2019-01-26T20:19:58.696Z,3.18
2019-01-26T20:25:00.934Z,3.20
2019-01-26T20:30:07.250Z,3.21
2019-01-26T20:35:09.774Z,3.21
2019-01-26T20:40:15.229Z,3.21
2019-01-26T20:45:38.645Z,3.24
2019-01-26T20:50:41.863Z,3.26
2019-01-26T20:55:44.312Z,3.30
2019-01-26T21:00:46.817Z,3.32
2019-01-26T21:05:49.738Z,3.33
2019-01-26T21:10:52.222Z,3.37
2019-01-26T21:15:54.925Z,3.42
2019-01-26T21:20:57.261Z,3.46
2019-01-26T21:25:59.723Z,3.49
2019-01-26T21:31:02.193Z,3.56
2019-01-26T21:36:05.179Z,3.61
2019-01-26T21:41:07.447Z,3.68
2019-01-26T21:46:09.955Z,3.74
2019-01-26T21:51:12.203Z,3.79
2019-01-26T21:56:15.781Z,3.83
2019-01-26T22:01:18.375Z,3.90
2019-01-26T22:06:20.668Z,3.94
2019-01-26T22:11:23.031Z,3.99
2019-01-26T22:16:25.265Z,4.04
2019-01-26T22:21:28.008Z,4.08
2019-01-26T22:26:31.131Z,4.12
2019-01-26T22:31:33.779Z,4.13
2019-01-26T22:36:37.010Z,4.16
2019-01-26T22:41:39.275Z,4.17
2019-01-26T22:46:41.557Z,4.18
2019-01-26T22:51:44.083Z,4.20
2019-01-26T22:56:46.975Z,4.22
2019-01-26T23:01:49.816Z,4.23
2019-01-26T23:07:48.536Z,4.25
2019-01-26T23:13:17.755Z,4.26
2019-01-26T23:19:01.857Z,4.26
2019-01-26T23:24:56.965Z,4.29
2019-01-26T23:30:38.553Z,4.29
2019-01-26T23:35:41.045Z,4.31
2019-01-26T23:40:43.387Z,4.32
2019-01-26T23:45:45.620Z,4.33
2019-01-26T23:50:48.430Z,4.32
2019-01-26T23:55:50.715Z,4.34
